Hammersmith, United Kingdom
Current Conditions -  °F | °C
As of 10:50 AM on Thursday 23 Oct 2014 (Local Time) from EGWU Reporting Station
Scattered Clouds Scattered Clouds  
Wind Chill: 59°   Ceiling: Unl
Heat Index: 59°   Visibility: 6mi
Dew Point: 48°   Wind: 10mph
Humidity: 67%   Direction: 240°WSW
Pressure: 30.12"   Gusts: NA
Location:  51.49°N, 0.23°W
Report Text: EGWU 230950Z 24009KT 9999 FEW024 SCT100 15/09 Q1020 BLU NOSIG
Loading
Personal Weather Stations






























Interactive Weather Map
Tropical Storm Tracking
New forecast layout! Learn more

10-Day Weather Forecast

Advertisements
Track Severe Weather on mobile